sensor_id;sensor_type;location;lat;lon;timestamp;P1;durP1;ratioP1;P2;durP2;ratioP2
7983;SDS011;4037;47.980;10.172;2023-04-03T00:02:18;9.23;;;7.80;;
7983;SDS011;4037;47.980;10.172;2023-04-03T00:04:44;7.93;;;7.13;;
7983;SDS011;4037;47.980;10.172;2023-04-03T00:07:10;9.27;;;7.03;;
7983;SDS011;4037;47.980;10.172;2023-04-03T00:09:37;9.47;;;7.97;;
7983;SDS011;4037;47.980;10.172;2023-04-03T00:12:03;8.77;;;7.87;;
7983;SDS011;4037;47.980;10.172;2023-04-03T00:14:29;8.17;;;7.30;;
7983;SDS011;4037;47.980;10.172;2023-04-03T00:16:55;7.37;;;6.60;;
7983;SDS011;4037;47.980;10.172;2023-04-03T00:19:21;9.67;;;8.23;;
7983;SDS011;4037;47.980;10.172;2023-04-03T00:21:47;10.03;;;7.20;;
7983;SDS011;4037;47.980;10.172;2023-04-03T00:24:13;9.37;;;7.67;;
7983;SDS011;4037;47.980;10.172;2023-04-03T00:26:39;8.37;;;7.53;;
7983;SDS011;4037;47.980;10.172;2023-04-03T00:29:05;8.53;;;7.47;;
7983;SDS011;4037;47.980;10.172;2023-04-03T00:31:31;8.13;;;7.33;;
7983;SDS011;4037;47.980;10.172;2023-04-03T00:33:58;8.47;;;7.63;;
7983;SDS011;4037;47.980;10.172;2023-04-03T00:36:24;8.07;;;7.00;;
7983;SDS011;4037;47.980;10.172;2023-04-03T00:38:50;9.37;;;7.60;;
7983;SDS011;4037;47.980;10.172;2023-04-03T00:41:16;7.70;;;6.70;;
7983;SDS011;4037;47.980;10.172;2023-04-03T00:43:42;8.60;;;7.17;;
7983;SDS011;4037;47.980;10.172;2023-04-03T00:46:08;7.30;;;6.60;;
7983;SDS011;4037;47.980;10.172;2023-04-03T00:48:36;7.90;;;7.10;;
7983;SDS011;4037;47.980;10.172;2023-04-03T00:51:04;8.27;;;6.90;;
7983;SDS011;4037;47.980;10.172;2023-04-03T00:53:39;7.90;;;7.00;;
7983;SDS011;4037;47.980;10.172;2023-04-03T00:56:06;7.23;;;6.53;;
7983;SDS011;4037;47.980;10.172;2023-04-03T00:58:37;7.27;;;6.57;;
7983;SDS011;4037;47.980;10.172;2023-04-03T01:01:05;7.77;;;6.97;;
7983;SDS011;4037;47.980;10.172;2023-04-03T01:03:32;7.43;;;6.10;;
7983;SDS011;4037;47.980;10.172;2023-04-03T01:05:58;7.07;;;6.37;;
7983;SDS011;4037;47.980;10.172;2023-04-03T01:08:24;7.10;;;6.40;;
7983;SDS011;4037;47.980;10.172;2023-04-03T01:10:51;9.30;;;6.23;;
7983;SDS011;4037;47.980;10.172;2023-04-03T01:13:18;7.70;;;6.90;;
7983;SDS011;4037;47.980;10.172;2023-04-03T01:15:45;8.30;;;6.40;;
7983;SDS011;4037;47.980;10.172;2023-04-03T01:18:11;9.37;;;7.83;;
7983;SDS011;4037;47.980;10.172;2023-04-03T01:20:49;7.70;;;6.90;;
7983;SDS011;4037;47.980;10.172;2023-04-03T01:23:19;7.70;;;6.33;;
7983;SDS011;4037;47.980;10.172;2023-04-03T01:25:49;7.10;;;6.40;;
7983;SDS011;4037;47.980;10.172;2023-04-03T01:28:19;7.60;;;6.40;;
7983;SDS011;4037;47.980;10.172;2023-04-03T01:33:24;8.57;;;7.23;;
7983;SDS011;4037;47.980;10.172;2023-04-03T01:35:50;6.47;;;5.87;;
7983;SDS011;4037;47.980;10.172;2023-04-03T01:38:16;7.90;;;6.13;;
7983;SDS011;4037;47.980;10.172;2023-04-03T01:40:42;7.83;;;6.87;;
7983;SDS011;4037;47.980;10.172;2023-04-03T01:43:08;7.13;;;6.13;;
7983;SDS011;4037;47.980;10.172;2023-04-03T01:45:34;7.17;;;6.47;;
7983;SDS011;4037;47.980;10.172;2023-04-03T01:48:00;8.23;;;7.33;;
7983;SDS011;4037;47.980;10.172;2023-04-03T01:50:26;8.10;;;6.67;;
7983;SDS011;4037;47.980;10.172;2023-04-03T01:52:52;6.87;;;6.17;;
7983;SDS011;4037;47.980;10.172;2023-04-03T01:55:18;6.80;;;6.17;;
7983;SDS011;4037;47.980;10.172;2023-04-03T01:57:44;7.00;;;6.30;;
7983;SDS011;4037;47.980;10.172;2023-04-03T02:00:10;7.67;;;6.90;;
7983;SDS011;4037;47.980;10.172;2023-04-03T02:02:36;9.10;;;6.93;;
7983;SDS011;4037;47.980;10.172;2023-04-03T02:05:03;7.43;;;6.73;;
7983;SDS011;4037;47.980;10.172;2023-04-03T02:07:29;12.60;;;7.00;;
7983;SDS011;4037;47.980;10.172;2023-04-03T02:09:55;8.60;;;6.63;;
7983;SDS011;4037;47.980;10.172;2023-04-03T02:12:21;8.37;;;6.70;;
7983;SDS011;4037;47.980;10.172;2023-04-03T02:14:47;7.77;;;6.97;;
7983;SDS011;4037;47.980;10.172;2023-04-03T02:17:13;7.70;;;6.60;;
7983;SDS011;4037;47.980;10.172;2023-04-03T02:19:39;7.23;;;6.50;;
7983;SDS011;4037;47.980;10.172;2023-04-03T02:22:05;8.03;;;6.80;;
7983;SDS011;4037;47.980;10.172;2023-04-03T02:24:32;7.60;;;6.63;;
7983;SDS011;4037;47.980;10.172;2023-04-03T02:26:58;7.23;;;6.53;;
7983;SDS011;4037;47.980;10.172;2023-04-03T02:29:24;7.67;;;6.87;;
7983;SDS011;4037;47.980;10.172;2023-04-03T02:31:50;7.23;;;6.43;;
7983;SDS011;4037;47.980;10.172;2023-04-03T02:34:16;9.47;;;7.20;;
7983;SDS011;4037;47.980;10.172;2023-04-03T02:36:43;8.67;;;7.60;;
7983;SDS011;4037;47.980;10.172;2023-04-03T02:39:09;8.00;;;7.20;;
7983;SDS011;4037;47.980;10.172;2023-04-03T02:41:36;9.90;;;7.00;;
7983;SDS011;4037;47.980;10.172;2023-04-03T02:44:02;9.10;;;7.73;;
7983;SDS011;4037;47.980;10.172;2023-04-03T02:46:28;8.93;;;7.47;;
7983;SDS011;4037;47.980;10.172;2023-04-03T02:48:54;7.90;;;7.07;;
7983;SDS011;4037;47.980;10.172;2023-04-03T02:51:21;10.43;;;8.03;;
7983;SDS011;4037;47.980;10.172;2023-04-03T02:53:48;8.23;;;7.43;;
7983;SDS011;4037;47.980;10.172;2023-04-03T02:56:14;9.07;;;6.90;;
7983;SDS011;4037;47.980;10.172;2023-04-03T02:58:40;7.73;;;6.93;;
7983;SDS011;4037;47.980;10.172;2023-04-03T03:01:06;9.97;;;7.93;;
7983;SDS011;4037;47.980;10.172;2023-04-03T03:03:32;7.87;;;7.00;;
7983;SDS011;4037;47.980;10.172;2023-04-03T03:06:02;8.53;;;7.60;;
7983;SDS011;4037;47.980;10.172;2023-04-03T03:08:28;9.80;;;7.83;;
7983;SDS011;4037;47.980;10.172;2023-04-03T03:10:54;8.30;;;7.20;;
7983;SDS011;4037;47.980;10.172;2023-04-03T03:13:20;8.70;;;6.50;;
7983;SDS011;4037;47.980;10.172;2023-04-03T03:15:46;8.60;;;6.97;;
7983;SDS011;4037;47.980;10.172;2023-04-03T03:18:12;7.63;;;6.33;;
7983;SDS011;4037;47.980;10.172;2023-04-03T03:20:38;7.90;;;7.03;;
7983;SDS011;4037;47.980;10.172;2023-04-03T03:23:04;7.37;;;6.67;;
7983;SDS011;4037;47.980;10.172;2023-04-03T03:25:30;9.10;;;6.10;;
7983;SDS011;4037;47.980;10.172;2023-04-03T03:27:56;9.30;;;6.10;;
7983;SDS011;4037;47.980;10.172;2023-04-03T03:30:22;9.40;;;5.97;;
7983;SDS011;4037;47.980;10.172;2023-04-03T03:32:48;6.73;;;6.03;;
7983;SDS011;4037;47.980;10.172;2023-04-03T03:35:14;6.57;;;5.20;;
7983;SDS011;4037;47.980;10.172;2023-04-03T03:37:40;6.73;;;5.60;;
7983;SDS011;4037;47.980;10.172;2023-04-03T03:40:06;5.97;;;5.33;;
7983;SDS011;4037;47.980;10.172;2023-04-03T03:42:33;7.03;;;5.40;;
7983;SDS011;4037;47.980;10.172;2023-04-03T03:44:59;6.33;;;5.73;;
7983;SDS011;4037;47.980;10.172;2023-04-03T03:47:25;5.70;;;5.17;;
7983;SDS011;4037;47.980;10.172;2023-04-03T03:49:51;5.77;;;5.17;;
7983;SDS011;4037;47.980;10.172;2023-04-03T03:52:17;6.33;;;5.73;;
7983;SDS011;4037;47.980;10.172;2023-04-03T03:54:43;5.77;;;5.17;;
7983;SDS011;4037;47.980;10.172;2023-04-03T03:57:09;5.93;;;4.97;;
7983;SDS011;4037;47.980;10.172;2023-04-03T03:59:35;5.37;;;4.77;;
7983;SDS011;4037;47.980;10.172;2023-04-03T04:02:01;5.63;;;4.83;;
7983;SDS011;4037;47.980;10.172;2023-04-03T04:04:27;7.30;;;5.10;;
7983;SDS011;4037;47.980;10.172;2023-04-03T04:06:53;5.93;;;4.70;;
7983;SDS011;4037;47.980;10.172;2023-04-03T04:09:19;6.80;;;6.10;;
7983;SDS011;4037;47.980;10.172;2023-04-03T04:11:46;6.97;;;4.87;;
7983;SDS011;4037;47.980;10.172;2023-04-03T04:14:12;5.70;;;5.13;;
7983;SDS011;4037;47.980;10.172;2023-04-03T04:16:38;6.57;;;5.30;;
7983;SDS011;4037;47.980;10.172;2023-04-03T04:19:04;5.53;;;4.73;;
7983;SDS011;4037;47.980;10.172;2023-04-03T04:21:30;6.73;;;5.37;;
7983;SDS011;4037;47.980;10.172;2023-04-03T04:23:56;6.30;;;5.70;;
7983;SDS011;4037;47.980;10.172;2023-04-03T04:26:22;7.30;;;5.07;;
7983;SDS011;4037;47.980;10.172;2023-04-03T04:28:49;6.53;;;4.70;;
7983;SDS011;4037;47.980;10.172;2023-04-03T04:31:15;8.90;;;5.07;;
7983;SDS011;4037;47.980;10.172;2023-04-03T04:33:41;5.67;;;5.17;;
7983;SDS011;4037;47.980;10.172;2023-04-03T04:36:07;5.73;;;5.00;;
7983;SDS011;4037;47.980;10.172;2023-04-03T04:38:33;6.50;;;5.10;;
7983;SDS011;4037;47.980;10.172;2023-04-03T04:40:59;8.27;;;6.00;;
7983;SDS011;4037;47.980;10.172;2023-04-03T04:43:25;7.93;;;5.60;;
7983;SDS011;4037;47.980;10.172;2023-04-03T04:46:01;5.80;;;5.13;;
7983;SDS011;4037;47.980;10.172;2023-04-03T04:48:27;5.80;;;5.30;;
7983;SDS011;4037;47.980;10.172;2023-04-03T04:50:53;5.50;;;5.00;;
7983;SDS011;4037;47.980;10.172;2023-04-03T04:53:19;5.63;;;4.97;;
7983;SDS011;4037;47.980;10.172;2023-04-03T04:55:45;5.53;;;4.93;;
7983;SDS011;4037;47.980;10.172;2023-04-03T04:58:11;5.70;;;4.97;;
7983;SDS011;4037;47.980;10.172;2023-04-03T05:00:37;5.33;;;4.83;;
7983;SDS011;4037;47.980;10.172;2023-04-03T05:03:03;5.90;;;5.30;;
7983;SDS011;4037;47.980;10.172;2023-04-03T05:05:29;6.30;;;5.17;;
7983;SDS011;4037;47.980;10.172;2023-04-03T05:07:55;5.73;;;5.10;;
7983;SDS011;4037;47.980;10.172;2023-04-03T05:10:21;5.10;;;4.70;;
7983;SDS011;4037;47.980;10.172;2023-04-03T05:12:47;5.90;;;5.20;;
7983;SDS011;4037;47.980;10.172;2023-04-03T05:15:13;5.20;;;4.60;;
7983;SDS011;4037;47.980;10.172;2023-04-03T05:17:40;6.10;;;5.50;;
7983;SDS011;4037;47.980;10.172;2023-04-03T05:20:06;6.70;;;4.77;;
7983;SDS011;4037;47.980;10.172;2023-04-03T05:22:32;6.07;;;4.77;;
7983;SDS011;4037;47.980;10.172;2023-04-03T05:24:58;6.50;;;4.60;;
7983;SDS011;4037;47.980;10.172;2023-04-03T05:27:24;7.03;;;5.17;;
7983;SDS011;4037;47.980;10.172;2023-04-03T05:29:53;5.50;;;4.47;;
7983;SDS011;4037;47.980;10.172;2023-04-03T05:32:19;5.83;;;4.80;;
7983;SDS011;4037;47.980;10.172;2023-04-03T05:34:45;5.30;;;4.50;;
7983;SDS011;4037;47.980;10.172;2023-04-03T05:37:12;6.50;;;4.90;;
7983;SDS011;4037;47.980;10.172;2023-04-03T05:39:38;5.97;;;5.10;;
7983;SDS011;4037;47.980;10.172;2023-04-03T05:42:05;6.03;;;5.43;;
7983;SDS011;4037;47.980;10.172;2023-04-03T05:44:31;7.13;;;4.53;;
7983;SDS011;4037;47.980;10.172;2023-04-03T05:46:57;6.07;;;4.77;;
7983;SDS011;4037;47.980;10.172;2023-04-03T05:49:23;6.13;;;4.50;;
7983;SDS011;4037;47.980;10.172;2023-04-03T05:51:49;5.47;;;4.27;;
7983;SDS011;4037;47.980;10.172;2023-04-03T05:54:34;6.30;;;4.50;;
7983;SDS011;4037;47.980;10.172;2023-04-03T05:57:00;6.20;;;4.13;;
7983;SDS011;4037;47.980;10.172;2023-04-03T05:59:26;6.13;;;4.90;;
7983;SDS011;4037;47.980;10.172;2023-04-03T06:01:52;5.63;;;4.50;;
7983;SDS011;4037;47.980;10.172;2023-04-03T06:04:18;5.90;;;5.30;;
7983;SDS011;4037;47.980;10.172;2023-04-03T06:06:50;5.20;;;4.70;;
7983;SDS011;4037;47.980;10.172;2023-04-03T06:09:16;6.87;;;4.87;;
7983;SDS011;4037;47.980;10.172;2023-04-03T06:11:42;7.53;;;5.90;;
7983;SDS011;4037;47.980;10.172;2023-04-03T06:14:08;5.97;;;5.10;;
7983;SDS011;4037;47.980;10.172;2023-04-03T06:16:34;6.77;;;5.57;;
7983;SDS011;4037;47.980;10.172;2023-04-03T06:19:00;7.23;;;5.50;;
7983;SDS011;4037;47.980;10.172;2023-04-03T06:21:27;5.57;;;5.00;;
7983;SDS011;4037;47.980;10.172;2023-04-03T06:23:53;6.33;;;5.10;;
7983;SDS011;4037;47.980;10.172;2023-04-03T06:26:19;5.83;;;4.90;;
7983;SDS011;4037;47.980;10.172;2023-04-03T06:28:46;6.37;;;5.03;;
7983;SDS011;4037;47.980;10.172;2023-04-03T06:31:12;6.07;;;5.47;;
7983;SDS011;4037;47.980;10.172;2023-04-03T06:33:38;6.03;;;5.43;;
7983;SDS011;4037;47.980;10.172;2023-04-03T06:36:04;6.90;;;5.60;;
7983;SDS011;4037;47.980;10.172;2023-04-03T06:38:31;6.43;;;5.33;;
7983;SDS011;4037;47.980;10.172;2023-04-03T06:40:57;8.60;;;5.40;;
7983;SDS011;4037;47.980;10.172;2023-04-03T06:43:23;5.57;;;4.97;;
7983;SDS011;4037;47.980;10.172;2023-04-03T06:45:49;5.67;;;4.97;;
7983;SDS011;4037;47.980;10.172;2023-04-03T06:48:16;5.80;;;5.20;;
7983;SDS011;4037;47.980;10.172;2023-04-03T06:50:42;7.77;;;5.27;;
7983;SDS011;4037;47.980;10.172;2023-04-03T06:53:08;6.20;;;5.30;;
7983;SDS011;4037;47.980;10.172;2023-04-03T06:55:34;7.53;;;5.37;;
7983;SDS011;4037;47.980;10.172;2023-04-03T06:58:01;5.60;;;5.07;;
7983;SDS011;4037;47.980;10.172;2023-04-03T07:00:28;6.33;;;5.57;;
7983;SDS011;4037;47.980;10.172;2023-04-03T07:02:55;7.37;;;5.67;;
7983;SDS011;4037;47.980;10.172;2023-04-03T07:05:22;6.43;;;5.33;;
7983;SDS011;4037;47.980;10.172;2023-04-03T07:07:48;6.63;;;5.43;;
7983;SDS011;4037;47.980;10.172;2023-04-03T07:10:15;8.00;;;5.80;;
7983;SDS011;4037;47.980;10.172;2023-04-03T07:12:41;8.10;;;6.50;;
7983;SDS011;4037;47.980;10.172;2023-04-03T07:15:07;6.27;;;5.10;;
7983;SDS011;4037;47.980;10.172;2023-04-03T07:17:34;7.20;;;5.47;;
7983;SDS011;4037;47.980;10.172;2023-04-03T07:20:01;8.07;;;6.00;;
7983;SDS011;4037;47.980;10.172;2023-04-03T07:22:27;7.00;;;5.53;;
7983;SDS011;4037;47.980;10.172;2023-04-03T07:24:53;6.53;;;5.83;;
7983;SDS011;4037;47.980;10.172;2023-04-03T07:27:19;7.23;;;5.20;;
7983;SDS011;4037;47.980;10.172;2023-04-03T07:29:45;7.03;;;5.97;;
7983;SDS011;4037;47.980;10.172;2023-04-03T07:32:13;6.77;;;5.60;;
7983;SDS011;4037;47.980;10.172;2023-04-03T07:34:40;6.23;;;5.33;;
7983;SDS011;4037;47.980;10.172;2023-04-03T07:37:06;8.37;;;6.00;;
7983;SDS011;4037;47.980;10.172;2023-04-03T07:39:33;6.30;;;5.70;;
7983;SDS011;4037;47.980;10.172;2023-04-03T07:42:00;6.73;;;5.43;;
7983;SDS011;4037;47.980;10.172;2023-04-03T07:44:27;7.07;;;6.10;;
7983;SDS011;4037;47.980;10.172;2023-04-03T07:46:53;7.87;;;5.57;;
7983;SDS011;4037;47.980;10.172;2023-04-03T07:49:21;7.43;;;5.53;;
7983;SDS011;4037;47.980;10.172;2023-04-03T07:51:49;6.00;;;5.33;;
7983;SDS011;4037;47.980;10.172;2023-04-03T07:54:15;6.73;;;5.30;;
7983;SDS011;4037;47.980;10.172;2023-04-03T07:56:41;9.27;;;6.77;;
7983;SDS011;4037;47.980;10.172;2023-04-03T07:59:08;8.20;;;7.40;;
7983;SDS011;4037;47.980;10.172;2023-04-03T08:01:34;11.27;;;6.30;;
7983;SDS011;4037;47.980;10.172;2023-04-03T08:04:00;7.30;;;6.13;;
7983;SDS011;4037;47.980;10.172;2023-04-03T08:06:26;8.00;;;7.20;;
7983;SDS011;4037;47.980;10.172;2023-04-03T08:08:54;7.63;;;6.83;;
7983;SDS011;4037;47.980;10.172;2023-04-03T08:11:21;6.63;;;5.80;;
7983;SDS011;4037;47.980;10.172;2023-04-03T08:13:48;6.67;;;5.63;;
7983;SDS011;4037;47.980;10.172;2023-04-03T08:16:18;7.70;;;5.87;;
7983;SDS011;4037;47.980;10.172;2023-04-03T08:18:45;6.10;;;5.50;;
7983;SDS011;4037;47.980;10.172;2023-04-03T08:21:12;6.63;;;5.63;;
7983;SDS011;4037;47.980;10.172;2023-04-03T08:23:38;9.00;;;5.97;;
7983;SDS011;4037;47.980;10.172;2023-04-03T08:26:09;6.37;;;5.43;;
7983;SDS011;4037;47.980;10.172;2023-04-03T08:28:36;6.73;;;6.03;;
7983;SDS011;4037;47.980;10.172;2023-04-03T08:31:04;6.40;;;5.47;;
7983;SDS011;4037;47.980;10.172;2023-04-03T08:33:31;5.90;;;5.30;;
7983;SDS011;4037;47.980;10.172;2023-04-03T08:35:57;7.57;;;6.07;;
7983;SDS011;4037;47.980;10.172;2023-04-03T08:38:23;8.13;;;7.03;;
7983;SDS011;4037;47.980;10.172;2023-04-03T08:40:59;10.10;;;6.73;;
7983;SDS011;4037;47.980;10.172;2023-04-03T08:43:30;9.73;;;7.43;;
7983;SDS011;4037;47.980;10.172;2023-04-03T08:45:57;5.97;;;5.47;;
7983;SDS011;4037;47.980;10.172;2023-04-03T08:48:33;6.93;;;6.23;;
7983;SDS011;4037;47.980;10.172;2023-04-03T08:51:01;6.73;;;6.03;;
7983;SDS011;4037;47.980;10.172;2023-04-03T08:53:30;5.90;;;5.30;;
7983;SDS011;4037;47.980;10.172;2023-04-03T08:55:57;6.30;;;5.70;;
7983;SDS011;4037;47.980;10.172;2023-04-03T08:58:31;6.40;;;5.53;;
7983;SDS011;4037;47.980;10.172;2023-04-03T09:01:03;6.20;;;5.57;;
7983;SDS011;4037;47.980;10.172;2023-04-03T09:03:31;5.83;;;5.23;;
7983;SDS011;4037;47.980;10.172;2023-04-03T09:06:03;8.13;;;5.70;;
7983;SDS011;4037;47.980;10.172;2023-04-03T09:08:30;6.47;;;5.57;;
7983;SDS011;4037;47.980;10.172;2023-04-03T09:13:49;6.80;;;5.27;;
7983;SDS011;4037;47.980;10.172;2023-04-03T09:18:48;6.27;;;5.17;;
7983;SDS011;4037;47.980;10.172;2023-04-03T09:21:20;5.73;;;4.77;;
7983;SDS011;4037;47.980;10.172;2023-04-03T09:23:53;5.20;;;4.70;;
7983;SDS011;4037;47.980;10.172;2023-04-03T09:26:25;5.37;;;4.87;;
7983;SDS011;4037;47.980;10.172;2023-04-03T09:28:52;7.83;;;5.93;;
7983;SDS011;4037;47.980;10.172;2023-04-03T09:33:49;5.50;;;4.63;;
7983;SDS011;4037;47.980;10.172;2023-04-03T09:36:37;5.57;;;4.30;;
7983;SDS011;4037;47.980;10.172;2023-04-03T09:39:03;4.83;;;4.30;;
7983;SDS011;4037;47.980;10.172;2023-04-03T09:41:29;4.63;;;4.23;;
7983;SDS011;4037;47.980;10.172;2023-04-03T09:43:58;4.13;;;3.63;;
7983;SDS011;4037;47.980;10.172;2023-04-03T09:46:31;7.53;;;3.77;;
7983;SDS011;4037;47.980;10.172;2023-04-03T09:49:08;5.67;;;3.83;;
7983;SDS011;4037;47.980;10.172;2023-04-03T09:51:36;4.77;;;4.23;;
7983;SDS011;4037;47.980;10.172;2023-04-03T09:56:50;4.00;;;3.60;;
7983;SDS011;4037;47.980;10.172;2023-04-03T09:59:16;4.20;;;3.77;;
7983;SDS011;4037;47.980;10.172;2023-04-03T10:01:43;4.57;;;4.07;;
7983;SDS011;4037;47.980;10.172;2023-04-03T10:04:21;4.23;;;3.83;;
7983;SDS011;4037;47.980;10.172;2023-04-03T10:06:49;5.67;;;3.43;;
7983;SDS011;4037;47.980;10.172;2023-04-03T10:14:30;5.53;;;4.70;;
7983;SDS011;4037;47.980;10.172;2023-04-03T10:21:56;5.57;;;3.87;;
7983;SDS011;4037;47.980;10.172;2023-04-03T10:24:30;4.30;;;3.47;;
7983;SDS011;4037;47.980;10.172;2023-04-03T10:27:06;6.03;;;4.50;;
7983;SDS011;4037;47.980;10.172;2023-04-03T10:35:02;4.83;;;4.03;;
7983;SDS011;4037;47.980;10.172;2023-04-03T10:37:41;4.30;;;3.70;;
7983;SDS011;4037;47.980;10.172;2023-04-03T10:48:44;3.70;;;3.20;;
7983;SDS011;4037;47.980;10.172;2023-04-03T10:51:23;3.47;;;3.03;;
7983;SDS011;4037;47.980;10.172;2023-04-03T10:54:05;4.10;;;3.70;;
7983;SDS011;4037;47.980;10.172;2023-04-03T10:56:39;3.87;;;3.17;;
7983;SDS011;4037;47.980;10.172;2023-04-03T11:01:51;3.60;;;3.30;;
7983;SDS011;4037;47.980;10.172;2023-04-03T11:04:18;5.93;;;4.03;;
7983;SDS011;4037;47.980;10.172;2023-04-03T11:09:18;4.20;;;3.73;;
7983;SDS011;4037;47.980;10.172;2023-04-03T11:11:45;3.90;;;3.60;;
7983;SDS011;4037;47.980;10.172;2023-04-03T11:16:42;3.97;;;3.07;;
7983;SDS011;4037;47.980;10.172;2023-04-03T11:19:22;4.53;;;3.57;;
7983;SDS011;4037;47.980;10.172;2023-04-03T11:21:56;4.20;;;3.80;;
7983;SDS011;4037;47.980;10.172;2023-04-03T11:24:24;5.17;;;4.33;;
7983;SDS011;4037;47.980;10.172;2023-04-03T11:26:51;5.13;;;4.13;;
7983;SDS011;4037;47.980;10.172;2023-04-03T11:29:19;5.07;;;4.30;;
7983;SDS011;4037;47.980;10.172;2023-04-03T11:34:29;3.90;;;3.50;;
7983;SDS011;4037;47.980;10.172;2023-04-03T11:37:01;3.60;;;3.30;;
7983;SDS011;4037;47.980;10.172;2023-04-03T11:39:30;3.33;;;3.00;;
7983;SDS011;4037;47.980;10.172;2023-04-03T11:42:13;3.37;;;3.03;;
7983;SDS011;4037;47.980;10.172;2023-04-03T11:44:40;3.40;;;3.10;;
7983;SDS011;4037;47.980;10.172;2023-04-03T11:47:07;6.23;;;4.90;;
7983;SDS011;4037;47.980;10.172;2023-04-03T12:19:01;4.43;;;4.03;;
7983;SDS011;4037;47.980;10.172;2023-04-03T12:26:30;5.60;;;3.50;;
7983;SDS011;4037;47.980;10.172;2023-04-03T12:28:56;7.47;;;5.23;;
7983;SDS011;4037;47.980;10.172;2023-04-03T12:31:24;4.23;;;3.83;;
7983;SDS011;4037;47.980;10.172;2023-04-03T12:36:29;6.50;;;3.67;;
7983;SDS011;4037;47.980;10.172;2023-04-03T12:46:50;7.03;;;4.03;;
7983;SDS011;4037;47.980;10.172;2023-04-03T12:49:26;4.03;;;3.60;;
7983;SDS011;4037;47.980;10.172;2023-04-03T12:51:56;4.87;;;3.60;;
7983;SDS011;4037;47.980;10.172;2023-04-03T12:54:23;5.30;;;3.90;;
7983;SDS011;4037;47.980;10.172;2023-04-03T12:56:51;5.23;;;3.90;;
7983;SDS011;4037;47.980;10.172;2023-04-03T12:59:21;4.87;;;4.30;;
7983;SDS011;4037;47.980;10.172;2023-04-03T13:01:55;6.37;;;4.00;;
7983;SDS011;4037;47.980;10.172;2023-04-03T13:04:21;5.43;;;4.03;;
7983;SDS011;4037;47.980;10.172;2023-04-03T13:06:47;6.10;;;4.37;;
7983;SDS011;4037;47.980;10.172;2023-04-03T13:11:46;5.63;;;3.93;;
7983;SDS011;4037;47.980;10.172;2023-04-03T13:14:17;6.43;;;3.53;;
7983;SDS011;4037;47.980;10.172;2023-04-03T13:16:56;3.73;;;3.37;;
7983;SDS011;4037;47.980;10.172;2023-04-03T13:19:26;5.47;;;4.10;;
7983;SDS011;4037;47.980;10.172;2023-04-03T13:21:56;5.87;;;4.03;;
7983;SDS011;4037;47.980;10.172;2023-04-03T13:24:25;4.40;;;3.30;;
7983;SDS011;4037;47.980;10.172;2023-04-03T13:26:51;3.63;;;3.33;;
7983;SDS011;4037;47.980;10.172;2023-04-03T13:29:28;5.33;;;4.30;;
7983;SDS011;4037;47.980;10.172;2023-04-03T13:31:55;5.30;;;4.20;;
7983;SDS011;4037;47.980;10.172;2023-04-03T13:34:22;4.43;;;3.67;;
7983;SDS011;4037;47.980;10.172;2023-04-03T13:36:56;4.73;;;3.60;;
7983;SDS011;4037;47.980;10.172;2023-04-03T13:39:27;4.23;;;3.13;;
7983;SDS011;4037;47.980;10.172;2023-04-03T13:41:54;5.97;;;3.30;;
7983;SDS011;4037;47.980;10.172;2023-04-03T13:46:57;4.70;;;3.87;;
7983;SDS011;4037;47.980;10.172;2023-04-03T13:49:33;4.47;;;4.07;;
7983;SDS011;4037;47.980;10.172;2023-04-03T13:51:59;4.63;;;4.10;;
7983;SDS011;4037;47.980;10.172;2023-04-03T13:54:29;5.90;;;4.30;;
7983;SDS011;4037;47.980;10.172;2023-04-03T13:56:57;3.87;;;3.57;;
7983;SDS011;4037;47.980;10.172;2023-04-03T13:59:27;4.50;;;3.73;;
7983;SDS011;4037;47.980;10.172;2023-04-03T14:04:31;5.40;;;4.53;;
7983;SDS011;4037;47.980;10.172;2023-04-03T14:06:58;3.90;;;3.50;;
7983;SDS011;4037;47.980;10.172;2023-04-03T14:09:26;5.50;;;3.87;;
7983;SDS011;4037;47.980;10.172;2023-04-03T14:11:57;5.03;;;4.23;;
7983;SDS011;4037;47.980;10.172;2023-04-03T14:14:26;4.70;;;3.63;;
7983;SDS011;4037;47.980;10.172;2023-04-03T14:16:56;4.50;;;4.10;;
7983;SDS011;4037;47.980;10.172;2023-04-03T14:19:29;4.10;;;3.70;;
7983;SDS011;4037;47.980;10.172;2023-04-03T14:21:55;5.47;;;3.80;;
7983;SDS011;4037;47.980;10.172;2023-04-03T14:24:22;3.57;;;3.27;;
7983;SDS011;4037;47.980;10.172;2023-04-03T14:26:49;3.40;;;3.10;;
7983;SDS011;4037;47.980;10.172;2023-04-03T14:29:16;3.83;;;3.43;;
7983;SDS011;4037;47.980;10.172;2023-04-03T14:31:42;3.43;;;3.13;;
7983;SDS011;4037;47.980;10.172;2023-04-03T14:34:12;3.93;;;3.53;;
7983;SDS011;4037;47.980;10.172;2023-04-03T14:36:39;5.53;;;3.37;;
7983;SDS011;4037;47.980;10.172;2023-04-03T14:39:06;5.07;;;4.07;;
7983;SDS011;4037;47.980;10.172;2023-04-03T14:41:33;4.30;;;3.90;;
7983;SDS011;4037;47.980;10.172;2023-04-03T14:43:59;4.27;;;3.60;;
7983;SDS011;4037;47.980;10.172;2023-04-03T14:46:30;3.90;;;3.50;;
7983;SDS011;4037;47.980;10.172;2023-04-03T14:48:56;6.80;;;4.03;;
7983;SDS011;4037;47.980;10.172;2023-04-03T14:51:23;3.83;;;3.43;;
7983;SDS011;4037;47.980;10.172;2023-04-03T14:53:49;3.80;;;3.50;;
7983;SDS011;4037;47.980;10.172;2023-04-03T14:56:34;5.17;;;4.00;;
7983;SDS011;4037;47.980;10.172;2023-04-03T14:59:00;5.33;;;3.23;;
7983;SDS011;4037;47.980;10.172;2023-04-03T15:01:27;4.53;;;3.60;;
7983;SDS011;4037;47.980;10.172;2023-04-03T15:03:53;4.87;;;3.80;;
7983;SDS011;4037;47.980;10.172;2023-04-03T15:06:19;5.83;;;4.10;;
7983;SDS011;4037;47.980;10.172;2023-04-03T15:08:46;4.10;;;3.70;;
7983;SDS011;4037;47.980;10.172;2023-04-03T15:11:13;4.93;;;3.63;;
7983;SDS011;4037;47.980;10.172;2023-04-03T15:13:39;4.40;;;4.00;;
7983;SDS011;4037;47.980;10.172;2023-04-03T15:16:06;4.47;;;3.83;;
7983;SDS011;4037;47.980;10.172;2023-04-03T15:18:37;4.20;;;3.40;;
7983;SDS011;4037;47.980;10.172;2023-04-03T15:21:04;3.30;;;3.00;;
7983;SDS011;4037;47.980;10.172;2023-04-03T15:23:30;3.73;;;3.43;;
7983;SDS011;4037;47.980;10.172;2023-04-03T15:25:56;3.50;;;3.03;;
7983;SDS011;4037;47.980;10.172;2023-04-03T15:30:48;17.07;;;9.37;;
7983;SDS011;4037;47.980;10.172;2023-04-03T15:33:15;7.37;;;4.77;;
7983;SDS011;4037;47.980;10.172;2023-04-03T15:35:41;11.27;;;7.17;;
7983;SDS011;4037;47.980;10.172;2023-04-03T15:38:08;7.47;;;6.40;;
7983;SDS011;4037;47.980;10.172;2023-04-03T15:40:34;7.40;;;5.50;;
7983;SDS011;4037;47.980;10.172;2023-04-03T15:43:00;6.13;;;4.57;;
7983;SDS011;4037;47.980;10.172;2023-04-03T15:45:29;4.53;;;3.90;;
7983;SDS011;4037;47.980;10.172;2023-04-03T15:47:56;4.27;;;3.87;;
7983;SDS011;4037;47.980;10.172;2023-04-03T15:50:22;17.80;;;6.17;;
7983;SDS011;4037;47.980;10.172;2023-04-03T15:52:49;5.07;;;4.57;;
7983;SDS011;4037;47.980;10.172;2023-04-03T15:55:19;6.77;;;4.60;;
7983;SDS011;4037;47.980;10.172;2023-04-03T15:57:45;4.03;;;3.73;;
7983;SDS011;4037;47.980;10.172;2023-04-03T16:00:12;3.57;;;3.27;;
7983;SDS011;4037;47.980;10.172;2023-04-03T16:02:38;5.87;;;3.43;;
7983;SDS011;4037;47.980;10.172;2023-04-03T16:05:05;7.73;;;4.33;;
7983;SDS011;4037;47.980;10.172;2023-04-03T16:07:31;4.00;;;3.17;;
7983;SDS011;4037;47.980;10.172;2023-04-03T16:09:57;5.03;;;3.27;;
7983;SDS011;4037;47.980;10.172;2023-04-03T16:12:23;4.23;;;3.30;;
7983;SDS011;4037;47.980;10.172;2023-04-03T16:14:49;4.60;;;3.00;;
7983;SDS011;4037;47.980;10.172;2023-04-03T16:17:16;3.27;;;2.87;;
7983;SDS011;4037;47.980;10.172;2023-04-03T16:19:43;4.83;;;3.10;;
7983;SDS011;4037;47.980;10.172;2023-04-03T16:22:09;3.73;;;3.37;;
7983;SDS011;4037;47.980;10.172;2023-04-03T16:24:35;4.20;;;3.07;;
7983;SDS011;4037;47.980;10.172;2023-04-03T16:27:02;3.50;;;3.00;;
7983;SDS011;4037;47.980;10.172;2023-04-03T16:29:29;4.13;;;2.57;;
7983;SDS011;4037;47.980;10.172;2023-04-03T16:31:55;2.87;;;2.67;;
7983;SDS011;4037;47.980;10.172;2023-04-03T16:34:22;2.57;;;2.17;;
7983;SDS011;4037;47.980;10.172;2023-04-03T16:36:48;3.50;;;3.00;;
7983;SDS011;4037;47.980;10.172;2023-04-03T16:39:14;4.07;;;2.80;;
7983;SDS011;4037;47.980;10.172;2023-04-03T16:41:40;3.63;;;3.23;;
7983;SDS011;4037;47.980;10.172;2023-04-03T16:44:06;4.67;;;2.97;;
7983;SDS011;4037;47.980;10.172;2023-04-03T16:46:32;4.93;;;4.40;;